Time,TemperatureF,DewpointF,PressureIn,WindDirection,WindDirectionDegrees,WindSpeedMPH,WindSpeedGustMPH,Humidity,HourlyPrecipIn,Conditions,Clouds,dailyrainin,SolarRadiationWatts/m^2,SoftwareType,DateUTC
2013-12-01 00:02:00,46.0,26.0,-100.00,SSW,213,9.0,19.0,46,0.00,,,0.01,0.000000,,2013-12-01 08:02:00,
2013-12-01 00:11:00,46.0,26.0,-100.00,SSW,213,9.0,19.0,46,0.00,,,0.01,0.000000,,2013-12-01 08:11:00,
2013-12-01 00:22:00,46.0,26.0,-100.00,SSW,213,9.0,19.0,46,0.00,,,0.01,0.000000,,2013-12-01 08:22:00,
2013-12-01 00:31:00,45.0,29.0,-100.00,SSW,193,10.0,19.0,53,0.00,,,0.01,0.000000,,2013-12-01 08:31:00,
2013-12-01 00:52:00,45.0,29.0,-100.00,SSW,193,10.0,19.0,53,0.00,,,0.01,0.000000,,2013-12-01 08:52:00,
2013-12-01 01:02:00,45.0,29.0,-100.00,SSW,193,10.0,19.0,53,0.00,,,0.01,0.000000,,2013-12-01 09:02:00,
2013-12-01 01:11:00,45.0,29.0,-100.00,SSW,193,10.0,19.0,53,0.00,,,0.01,0.000000,,2013-12-01 09:11:00,
2013-12-01 01:21:00,45.0,29.0,-100.00,SSW,193,10.0,19.0,53,0.00,,,0.01,0.000000,,2013-12-01 09:21:00,
2013-12-01 01:31:00,43.0,34.0,-100.00,South,187,11.0,22.0,70,0.00,,,0.01,0.000000,,2013-12-01 09:31:00,
2013-12-01 01:53:00,43.0,34.0,-100.00,South,187,11.0,22.0,70,0.00,,,0.01,0.000000,,2013-12-01 09:53:00,
2013-12-01 02:03:00,43.0,34.0,-100.00,South,187,11.0,22.0,70,0.00,,,0.01,0.000000,,2013-12-01 10:03:00,
2013-12-01 02:12:00,43.0,34.0,-100.00,South,187,11.0,22.0,70,0.00,,,0.01,0.000000,,2013-12-01 10:12:00,
2013-12-01 02:22:00,43.0,34.0,-100.00,South,187,11.0,22.0,70,0.00,,,0.01,0.000000,,2013-12-01 10:22:00,
2013-12-01 02:31:00,43.0,40.0,-100.00,SSW,197,11.0,21.0,88,0.04,,,0.05,0.000000,,2013-12-01 10:31:00,
2013-12-01 02:53:00,43.0,40.0,-100.00,SSW,197,11.0,21.0,88,0.04,,,0.05,0.000000,,2013-12-01 10:53:00,
2013-12-01 03:02:00,43.0,40.0,-100.00,SSW,197,11.0,21.0,88,0.04,,,0.05,0.000000,,2013-12-01 11:02:00,
2013-12-01 03:12:00,43.0,40.0,-100.00,SSW,197,11.0,21.0,88,0.04,,,0.05,0.000000,,2013-12-01 11:12:00,
2013-12-01 03:22:00,43.0,40.0,-100.00,SSW,197,11.0,21.0,88,0.04,,,0.05,0.000000,,2013-12-01 11:22:00,
2013-12-01 03:31:00,43.0,40.0,-100.00,SSW,207,8.0,20.0,90,0.03,,,0.08,0.000000,,2013-12-01 11:31:00,
2013-12-01 03:52:00,43.0,40.0,-100.00,SSW,207,8.0,20.0,90,0.03,,,0.08,0.000000,,2013-12-01 11:52:00,
2013-12-01 04:02:00,43.0,40.0,-100.00,SSW,207,8.0,20.0,90,0.03,,,0.08,0.000000,,2013-12-01 12:02:00,
2013-12-01 04:12:00,43.0,40.0,-100.00,SSW,207,8.0,20.0,90,0.03,,,0.08,0.000000,,2013-12-01 12:12:00,
2013-12-01 04:22:00,43.0,40.0,-100.00,SSW,207,8.0,20.0,90,0.03,,,0.08,0.000000,,2013-12-01 12:22:00,
2013-12-01 04:31:00,45.0,43.0,-100.00,SSW,208,11.0,30.0,91,0.03,,,0.11,0.000000,,2013-12-01 12:31:00,
2013-12-01 04:52:00,45.0,43.0,-100.00,SSW,208,11.0,30.0,91,0.03,,,0.11,0.000000,,2013-12-01 12:52:00,
2013-12-01 05:01:00,45.0,43.0,-100.00,SSW,208,11.0,30.0,91,0.03,,,0.11,0.000000,,2013-12-01 13:01:00,
2013-12-01 05:11:00,45.0,43.0,-100.00,SSW,208,11.0,30.0,91,0.03,,,0.11,0.000000,,2013-12-01 13:11:00,
2013-12-01 05:21:00,45.0,43.0,-100.00,SSW,208,11.0,30.0,91,0.03,,,0.11,0.000000,,2013-12-01 13:21:00,
2013-12-01 05:31:00,46.0,42.0,-100.00,WSW,252,11.0,25.0,86,0.05,,,0.16,0.000000,,2013-12-01 13:31:00,
2013-12-01 05:52:00,46.0,42.0,-100.00,WSW,252,11.0,25.0,86,0.05,,,0.16,0.000000,,2013-12-01 13:52:00,
2013-12-01 06:02:00,46.0,42.0,-100.00,WSW,252,11.0,25.0,86,0.05,,,0.16,0.000000,,2013-12-01 14:02:00,
2013-12-01 06:11:00,46.0,42.0,-100.00,WSW,252,11.0,25.0,86,0.05,,,0.16,0.000000,,2013-12-01 14:11:00,
2013-12-01 06:21:00,46.0,42.0,-100.00,WSW,252,11.0,25.0,86,0.05,,,0.16,0.000000,,2013-12-01 14:21:00,
2013-12-01 06:31:00,46.0,41.0,-100.00,West,269,13.0,34.0,83,0.09,,,0.25,0.000000,,2013-12-01 14:31:00,
2013-12-01 06:52:00,46.0,41.0,-100.00,West,269,13.0,34.0,83,0.09,,,0.25,0.000000,,2013-12-01 14:52:00,
2013-12-01 07:01:00,46.0,41.0,-100.00,West,269,13.0,34.0,83,0.09,,,0.25,0.000000,,2013-12-01 15:01:00,
2013-12-01 07:11:00,46.0,41.0,-100.00,West,269,13.0,34.0,83,0.09,,,0.25,0.000000,,2013-12-01 15:11:00,
2013-12-01 07:21:00,46.0,41.0,-100.00,West,269,13.0,34.0,83,0.09,,,0.25,0.000000,,2013-12-01 15:21:00,
2013-12-01 07:31:00,46.0,42.0,-100.00,West,265,13.0,35.0,85,0.11,,,0.36,0.000000,,2013-12-01 15:31:00,
2013-12-01 07:53:00,46.0,42.0,-100.00,West,265,13.0,35.0,85,0.11,,,0.36,0.000000,,2013-12-01 15:53:00,
2013-12-01 08:03:00,46.0,42.0,-100.00,West,265,13.0,35.0,85,0.11,,,0.36,0.000000,,2013-12-01 16:03:00,
2013-12-01 08:13:00,46.0,42.0,-100.00,West,265,13.0,35.0,85,0.11,,,0.36,0.000000,,2013-12-01 16:13:00,
2013-12-01 08:23:00,46.0,42.0,-100.00,West,265,13.0,35.0,85,0.11,,,0.36,0.000000,,2013-12-01 16:23:00,
2013-12-01 08:31:00,46.0,41.0,-100.00,West,259,14.0,40.0,83,0.03,,,0.39,27.000000,,2013-12-01 16:31:00,
2013-12-01 08:52:00,46.0,41.0,-100.00,West,259,14.0,40.0,83,0.03,,,0.39,27.000000,,2013-12-01 16:52:00,
2013-12-01 09:02:00,46.0,41.0,-100.00,West,259,14.0,40.0,83,0.03,,,0.39,27.000000,,2013-12-01 17:02:00,
2013-12-01 09:12:00,46.0,41.0,-100.00,West,259,14.0,40.0,83,0.03,,,0.39,27.000000,,2013-12-01 17:12:00,
2013-12-01 09:22:00,46.0,41.0,-100.00,West,259,14.0,40.0,83,0.03,,,0.39,27.000000,,2013-12-01 17:22:00,
2013-12-01 09:31:00,49.0,44.0,-100.00,West,270,16.0,41.0,84,0.07,,,0.46,105.000000,,2013-12-01 17:31:00,
2013-12-01 09:52:00,49.0,44.0,-100.00,West,270,16.0,41.0,84,0.07,,,0.46,105.000000,,2013-12-01 17:52:00,
2013-12-01 10:02:00,49.0,44.0,-100.00,West,270,16.0,41.0,84,0.07,,,0.46,105.000000,,2013-12-01 18:02:00,
2013-12-01 10:12:00,49.0,44.0,-100.00,West,270,16.0,41.0,84,0.07,,,0.46,105.000000,,2013-12-01 18:12:00,
2013-12-01 10:21:00,49.0,44.0,-100.00,West,270,16.0,41.0,84,0.07,,,0.46,105.000000,,2013-12-01 18:21:00,
2013-12-01 10:31:00,51.0,44.0,-100.00,West,270,17.0,37.0,76,0.01,,,0.47,294.000000,,2013-12-01 18:31:00,
2013-12-01 10:52:00,51.0,44.0,-100.00,West,270,17.0,37.0,76,0.01,,,0.47,294.000000,,2013-12-01 18:52:00,
2013-12-01 11:02:00,51.0,44.0,-100.00,West,270,17.0,37.0,76,0.01,,,0.47,294.000000,,2013-12-01 19:02:00,
2013-12-01 11:11:00,51.0,44.0,-100.00,West,270,17.0,37.0,76,0.01,,,0.47,294.000000,,2013-12-01 19:11:00,
2013-12-01 11:21:00,51.0,44.0,-100.00,West,270,17.0,37.0,76,0.01,,,0.47,294.000000,,2013-12-01 19:21:00,
2013-12-01 11:31:00,51.0,42.0,-100.00,West,266,19.0,42.0,70,0.00,,,0.47,424.000000,,2013-12-01 19:31:00,
2013-12-01 11:52:00,51.0,42.0,-100.00,West,266,19.0,42.0,70,0.00,,,0.47,424.000000,,2013-12-01 19:52:00,
2013-12-01 12:01:00,51.0,42.0,-100.00,West,266,19.0,42.0,70,0.00,,,0.47,424.000000,,2013-12-01 20:01:00,
2013-12-01 12:11:00,51.0,42.0,-100.00,West,266,19.0,42.0,70,0.00,,,0.47,424.000000,,2013-12-01 20:11:00,
2013-12-01 12:21:00,51.0,42.0,-100.00,West,266,19.0,42.0,70,0.00,,,0.47,424.000000,,2013-12-01 20:21:00,
2013-12-01 12:31:00,50.0,42.0,-100.00,West,266,15.0,42.0,75,0.01,,,0.48,355.000000,,2013-12-01 20:31:00,
2013-12-01 12:52:00,50.0,42.0,-100.00,West,266,15.0,42.0,75,0.01,,,0.48,355.000000,,2013-12-01 20:52:00,
2013-12-01 13:02:00,50.0,42.0,-100.00,West,266,15.0,42.0,75,0.01,,,0.48,355.000000,,2013-12-01 21:02:00,
2013-12-01 13:11:00,50.0,42.0,-100.00,West,266,15.0,42.0,75,0.01,,,0.48,355.000000,,2013-12-01 21:11:00,
2013-12-01 13:22:00,50.0,42.0,-100.00,West,266,15.0,42.0,75,0.01,,,0.48,355.000000,,2013-12-01 21:22:00,
2013-12-01 13:31:00,50.0,42.0,-100.00,West,274,14.0,35.0,74,0.00,,,0.48,284.000000,,2013-12-01 21:31:00,
2013-12-01 13:53:00,50.0,42.0,-100.00,West,274,14.0,35.0,74,0.00,,,0.48,284.000000,,2013-12-01 21:53:00,
2013-12-01 14:03:00,50.0,42.0,-100.00,West,274,14.0,35.0,74,0.00,,,0.48,284.000000,,2013-12-01 22:03:00,
2013-12-01 14:13:00,50.0,42.0,-100.00,West,274,14.0,35.0,74,0.00,,,0.48,284.000000,,2013-12-01 22:13:00,
2013-12-01 14:22:00,50.0,42.0,-100.00,West,274,14.0,35.0,74,0.00,,,0.48,284.000000,,2013-12-01 22:22:00,
2013-12-01 14:31:00,49.0,42.0,-100.00,West,264,13.0,35.0,76,0.00,,,0.48,154.000000,,2013-12-01 22:31:00,
2013-12-01 14:52:00,49.0,42.0,-100.00,West,264,13.0,35.0,76,0.00,,,0.48,154.000000,,2013-12-01 22:52:00,
2013-12-01 15:02:00,49.0,42.0,-100.00,West,264,13.0,35.0,76,0.00,,,0.48,154.000000,,2013-12-01 23:02:00,
2013-12-01 15:12:00,49.0,42.0,-100.00,West,264,13.0,35.0,76,0.00,,,0.48,154.000000,,2013-12-01 23:12:00,
2013-12-01 15:22:00,49.0,42.0,-100.00,West,264,13.0,35.0,76,0.00,,,0.48,154.000000,,2013-12-01 23:22:00,
2013-12-01 15:31:00,49.0,41.0,-100.00,West,261,17.0,35.0,73,0.00,,,0.48,74.000000,,2013-12-01 23:31:00,
2013-12-01 15:52:00,49.0,41.0,-100.00,West,261,17.0,35.0,73,0.00,,,0.48,74.000000,,2013-12-01 23:52:00,
2013-12-01 16:01:00,49.0,41.0,-100.00,West,261,17.0,35.0,73,0.00,,,0.48,74.000000,,2013-12-02 00:01:00,
2013-12-01 16:11:00,49.0,41.0,-100.00,West,261,17.0,35.0,73,0.00,,,0.48,74.000000,,2013-12-02 00:11:00,
2013-12-01 16:21:00,49.0,41.0,-100.00,West,261,17.0,35.0,73,0.00,,,0.48,74.000000,,2013-12-02 00:21:00,
2013-12-01 16:31:00,48.0,41.0,-100.00,WSW,257,15.0,34.0,78,0.01,,,0.49,21.000000,,2013-12-02 00:31:00,
2013-12-01 16:52:00,48.0,41.0,-100.00,WSW,257,15.0,34.0,78,0.01,,,0.49,21.000000,,2013-12-02 00:52:00,
2013-12-01 17:01:00,48.0,41.0,-100.00,WSW,257,15.0,34.0,78,0.01,,,0.49,21.000000,,2013-12-02 01:01:00,
2013-12-01 17:11:00,48.0,41.0,-100.00,WSW,257,15.0,34.0,78,0.01,,,0.49,21.000000,,2013-12-02 01:11:00,
2013-12-01 17:21:00,48.0,41.0,-100.00,WSW,257,15.0,34.0,78,0.01,,,0.49,21.000000,,2013-12-02 01:21:00,
2013-12-01 17:31:00,48.0,39.0,-100.00,WSW,248,12.0,33.0,72,0.00,,,0.49,0.000000,,2013-12-02 01:31:00,
2013-12-01 17:52:00,48.0,39.0,-100.00,WSW,248,12.0,33.0,72,0.00,,,0.49,0.000000,,2013-12-02 01:52:00,
2013-12-01 18:01:00,48.0,39.0,-100.00,WSW,248,12.0,33.0,72,0.00,,,0.49,0.000000,,2013-12-02 02:01:00,
2013-12-01 18:11:00,48.0,39.0,-100.00,WSW,248,12.0,33.0,72,0.00,,,0.49,0.000000,,2013-12-02 02:11:00,
2013-12-01 18:21:00,48.0,39.0,-100.00,WSW,248,12.0,33.0,72,0.00,,,0.49,0.000000,,2013-12-02 02:21:00,
2013-12-01 18:31:00,46.0,40.0,-100.00,WSW,238,11.0,28.0,79,0.02,,,0.50,0.000000,,2013-12-02 02:31:00,
2013-12-01 18:52:00,46.0,40.0,-100.00,WSW,238,11.0,28.0,79,0.02,,,0.50,0.000000,,2013-12-02 02:52:00,
2013-12-01 19:02:00,46.0,40.0,-100.00,WSW,238,11.0,28.0,79,0.02,,,0.50,0.000000,,2013-12-02 03:02:00,
2013-12-01 19:11:00,46.0,40.0,-100.00,WSW,238,11.0,28.0,79,0.02,,,0.50,0.000000,,2013-12-02 03:11:00,
2013-12-01 19:22:00,46.0,40.0,-100.00,WSW,238,11.0,28.0,79,0.02,,,0.50,0.000000,,2013-12-02 03:22:00,
2013-12-01 19:31:00,45.0,41.0,-100.00,WSW,243,10.0,25.0,85,0.02,,,0.52,0.000000,,2013-12-02 03:31:00,
2013-12-01 19:54:00,45.0,41.0,-100.00,WSW,243,10.0,25.0,85,0.02,,,0.52,0.000000,,2013-12-02 03:54:00,
2013-12-01 20:03:00,45.0,41.0,-100.00,WSW,243,10.0,25.0,85,0.02,,,0.52,0.000000,,2013-12-02 04:03:00,
2013-12-01 20:13:00,45.0,41.0,-100.00,WSW,243,10.0,25.0,85,0.02,,,0.52,0.000000,,2013-12-02 04:13:00,
2013-12-01 20:23:00,45.0,41.0,-100.00,WSW,243,10.0,25.0,85,0.02,,,0.52,0.000000,,2013-12-02 04:23:00,
2013-12-01 20:31:00,45.0,41.0,-100.00,SW,233,11.0,27.0,85,0.03,,,0.55,0.000000,,2013-12-02 04:31:00,
2013-12-01 20:53:00,45.0,41.0,-100.00,SW,233,11.0,27.0,85,0.03,,,0.55,0.000000,,2013-12-02 04:53:00,
2013-12-01 21:02:00,45.0,41.0,-100.00,SW,233,11.0,27.0,85,0.03,,,0.55,0.000000,,2013-12-02 05:02:00,
2013-12-01 21:12:00,45.0,41.0,-100.00,SW,233,11.0,27.0,85,0.03,,,0.55,0.000000,,2013-12-02 05:12:00,
2013-12-01 21:23:00,45.0,41.0,-100.00,SW,233,11.0,27.0,85,0.03,,,0.55,0.000000,,2013-12-02 05:23:00,
2013-12-01 21:31:00,44.0,41.0,-100.00,SW,215,12.0,28.0,88,0.04,,,0.59,0.000000,,2013-12-02 05:31:00,
2013-12-01 21:53:00,44.0,41.0,-100.00,SW,215,12.0,28.0,88,0.04,,,0.59,0.000000,,2013-12-02 05:53:00,
2013-12-01 22:02:00,44.0,41.0,-100.00,SW,215,12.0,28.0,88,0.04,,,0.59,0.000000,,2013-12-02 06:02:00,
2013-12-01 22:12:00,44.0,41.0,-100.00,SW,215,12.0,28.0,88,0.04,,,0.59,0.000000,,2013-12-02 06:12:00,
2013-12-01 22:22:00,44.0,41.0,-100.00,SW,215,12.0,28.0,88,0.04,,,0.59,0.000000,,2013-12-02 06:22:00,
2013-12-01 22:31:00,43.0,41.0,-100.00,SW,227,8.0,24.0,91,0.10,,,-99.99,0.000000,,2013-12-02 06:31:00,
2013-12-01 22:52:00,43.0,41.0,-100.00,SW,227,8.0,24.0,91,0.10,,,-99.99,0.000000,,2013-12-02 06:52:00,
2013-12-01 23:01:00,43.0,41.0,-100.00,SW,227,8.0,24.0,91,0.10,,,-99.99,0.000000,,2013-12-02 07:01:00,
2013-12-01 23:12:00,43.0,41.0,-100.00,SW,227,8.0,24.0,91,0.10,,,-99.99,0.000000,,2013-12-02 07:12:00,
2013-12-01 23:21:00,43.0,41.0,-100.00,SW,227,8.0,24.0,91,0.10,,,-99.99,0.000000,,2013-12-02 07:21:00,
2013-12-01 23:31:00,42.0,39.0,-100.00,SSW,213,8.0,30.0,88,0.22,,,-99.99,0.000000,,2013-12-02 07:31:00,
2013-12-01 23:52:00,42.0,39.0,-100.00,SSW,213,8.0,30.0,88,0.22,,,-99.99,0.000000,,2013-12-02 07:52:00,